• Join FlightAware (Why Join?)
  • Login
  • US Flag 
07:48PM EDT


 

Airport Tracker/Info


-or-


 

Live Flight TrackerFlight Track Log ✈ ASQ5738 ✈ 29-Jun-2013 ✈ KIAD - KLGA

Flight Track Log - Related Links

Times and Time Zones

All times are in EDT time to prevent confusion due to time zone crossing. See the ASQ5738 flight status page for this flight to view local times or setup timezone preferences in your user account.

Time Position Orientation Groundspeed Altitude Reporting Facility
EDT Latitude Longitude Course Direction KTS MPH feet Rate Location/Type
05:46PM 38.9500 -77.5000 84° East 169 194 1,200  Level Potomac TRACON
05:47PM 39.0000 -77.5667 314° West 243 280 2,900 1,860 Climbing Potomac TRACON
05:48PM 39.0500 -77.5833 345° North 302 348 5,200 2,400 Climbing Potomac TRACON
05:49PM 38.9696 -77.1128 84° East  Level FlightAware Approximate
05:49PM 39.1000 -77.5000 52° Northeast 290 334 8,000  Level Potomac TRACON
05:50PM 38.9785 -76.9967 84° East  Level FlightAware Approximate
05:50PM 39.1500 -77.4000 57° Northeast 313 360 9,900  Level Potomac TRACON
05:51PM 38.9874 -76.8805 84° East  Level FlightAware Approximate
05:51PM 39.1667 -77.3000 78° East 369 425 10,000  Level Potomac TRACON
05:52PM 38.9964 -76.7644 84° East  Level FlightAware Approximate
05:53PM 39.1017 -77.1136 114° Southeast 369 425 12,200  Level Washington Center
05:54PM 39.0906 -77.0064 98° East 374 430 13,900 1,980 Climbing Washington Center
05:55PM 39.0756 -76.8456 97° East 374 430 16,200 1,860 Climbing Washington Center
05:56PM 39.0603 -76.7089 98° East 374 430 17,700 1,680 Climbing Washington Center
05:57PM 39.0489 -76.5753 96° East 374 430 19,600 1,620 Climbing Washington Center
05:58PM 39.0314 -76.4386 99° East 374 430 20,900 960 Climbing Washington Center
05:59PM 39.0300 -76.2944 91° East 388 447 21,600 720 Climbing Washington Center
06:00PM 39.0392 -76.1556 85° East 411 473 22,400 660 Climbing Washington Center
06:01PM 39.0481 -76.0033 86° East 423 487 23,000 240 Climbing Washington Center
06:02PM 39.0547 -75.8456 87° East 428 493 23,000  Level Washington Center
06:03PM 39.0925 -75.6933 72° East 441 507 23,000  Level Washington Center
06:04PM 39.1883 -75.5675 45° Northeast 441 507 23,000  Level Washington Center
06:05PM 39.2989 -75.4575 38° Northeast 466 536 23,000  Level Washington Center
06:06PM 39.4153 -75.3525 35° Northeast 484 557 23,000  Level Washington Center
06:07PM 39.5297 -75.2525 34° Northeast 496 571 23,000  Level Washington Center
06:08PM 39.6564 -75.1361 35° Northeast 501 577 23,000 -600 Level Washington Center
06:09PM 39.7622 -75.0436 34° Northeast 513 590 21,800 -2,160 Descending Washington Center
06:10PM 39.8825 -74.9372 34° Northeast 494 568 18,800 -3,180 Descending Washington Center
06:11PM 39.9756 -74.8281 42° Northeast 467 537 15,400 -3,660 Descending Washington Center
06:12PM 40.0667 -74.7000 47° Northeast 408 470 11,000 -2,580 Descending New York TRACON
06:13PM 40.1333 -74.6000 49° Northeast 392 451 10,000 -540 Descending New York TRACON
06:14PM 40.2167 -74.4833 47° Northeast 397 457 10,000  Level New York TRACON
06:15PM 40.2833 -74.3833 49° Northeast 400 460 10,000  Level New York TRACON
06:16PM 40.3667 -74.2833 42° Northeast 395 455 10,000 -420 Level New York TRACON
06:17PM 40.4500 -74.2333 25° Northeast 319 367 9,200 -1,080 Descending New York TRACON
06:18PM 40.5333 -74.1833 25° Northeast 306 352 7,900 -1,200 Descending New York TRACON
06:19PM 40.6000 -74.1333 30° Northeast 305 351 7,000 -1,140 Descending New York TRACON
06:20PM 40.6667 -74.0833 30° Northeast 297 342 5,800 -1,320 Descending New York TRACON
06:21PM 40.7333 -74.0167 37° Northeast 295 339 4,500 -1,200 Descending New York TRACON
06:22PM 40.8000 -73.9500 37° Northeast 284 327 3,500 -780 Descending New York TRACON
06:23PM 40.8667 -73.9000 30° Northeast 265 305 3,000 -300 Descending New York TRACON
06:24PM 40.9167 -73.8667 27° Northeast 197 227 3,000 -240 Level New York TRACON
06:25PM 40.9500 -73.8167 49° Northeast 200 230 2,600 -480 Descending New York TRACON
06:26PM 40.9167 -73.7833 143° Southeast 158 182 2,000 -600 Descending New York TRACON